Peshastin, WA (98847)

3:15 AM PDT on August 24, 2016 (GMT -0700)
Mountain Home Lodge Leavenworth, WA | | Change Station

Elev 2044 ft 47.57 °N, 120.65 °W | Updated 12 minutes ago

Overcast
Overcast
58.9 °F
Feels Like 58.9 °F
N
1.0
Wind Variable Wind from East

Today
High -- | Low -- °F
--% Chance of Precip.
Yesterday
High -- | Low -- °F
Precip. -- in
Pressure 30.15 in
Visibility 10.0 miles
Clouds Overcast 11000 ft
Dew Point 47 °F
Humidity 65%
Rainfall 0.00 in
Snow Depth Not available.
6:11 AM 7:57 PM
Waning Gibbous, 58% visible
METAR KEAT 240955Z AUTO 28005KT 10SM OVC110 19/09 A3017 RMK AO2 SLP209 T01890094
Pressure 30.15 in
Visibility 10.0 miles
Clouds Overcast 11000 ft
Dew Point 47 °F
Humidity 65%
Rainfall 0.00 in
Snow Depth Not available.
6:11 AM 7:57 PM
Waning Gibbous, 58% visible
METAR KEAT 240955Z AUTO 28005KT 10SM OVC110 19/09 A3017 RMK AO2 SLP209 T01890094

10-Day Weather Forecast

Almanac

Astronomy

Aug. 24, 2016 Rise Set
Actual Time
Civil Twilight
Nautical Twilight
Astronomical Twilight
Moon
Length of Visible Light
Length of Day
Tomorrow will be .
, % of the Moon is Illuminated

Today's Extremes

State Highs State Lows

Community

WunderPhotos

Upload Photos

1,934,560 photos uploaded!

WunderBlog® & News

Nearby

Air Quality

  Air Quality AQ Index Pollutant
Not available.

Snow Depth

Station Depth Elevation

Earthquake Activity

City Distance Mag. Time & Date
Minimum magnitude displayed is 2.5.

Coastal Water Temperatures

Place Temperature

Stations

Nearby Weather Stations

Station Location Temp. Windchill Dew Point Humidity Wind Precip. Elev Updated Type
                   

Watches & Warnings

There are currently no watches in effect.